sensor_id;sensor_type;location;lat;lon;timestamp;pressure;altitude;pressure_sealevel;temperature;humidity
55456;BME280;63021;52.836;6.376;2023-03-15T00:00:03;101013.13;;;2.79;71.38
55456;BME280;63021;52.836;6.376;2023-03-15T00:02:28;101030.41;;;2.83;71.17
55456;BME280;63021;52.836;6.376;2023-03-15T00:04:54;101032.25;;;2.81;71.30
55456;BME280;63021;52.836;6.376;2023-03-15T00:07:19;101037.31;;;2.84;71.54
55456;BME280;63021;52.836;6.376;2023-03-15T00:09:50;101037.25;;;2.86;71.78
55456;BME280;63021;52.836;6.376;2023-03-15T00:12:16;101038.19;;;2.85;71.60
55456;BME280;63021;52.836;6.376;2023-03-15T00:14:41;101040.72;;;2.86;71.68
55456;BME280;63021;52.836;6.376;2023-03-15T00:17:06;101046.00;;;2.86;71.58
55456;BME280;63021;52.836;6.376;2023-03-15T00:19:32;101045.69;;;2.76;71.53
55456;BME280;63021;52.836;6.376;2023-03-15T00:21:57;101034.16;;;2.79;71.73
55456;BME280;63021;52.836;6.376;2023-03-15T00:24:23;101052.19;;;2.85;71.58
55456;BME280;63021;52.836;6.376;2023-03-15T00:26:48;101044.19;;;2.72;71.64
55456;BME280;63021;52.836;6.376;2023-03-15T00:29:13;101068.78;;;2.86;72.18
55456;BME280;63021;52.836;6.376;2023-03-15T00:31:39;101072.38;;;2.85;72.09
55456;BME280;63021;52.836;6.376;2023-03-15T00:34:04;101086.16;;;2.88;72.30
55456;BME280;63021;52.836;6.376;2023-03-15T00:36:31;101082.81;;;2.86;72.38
55456;BME280;63021;52.836;6.376;2023-03-15T00:38:57;101085.16;;;2.91;72.59
55456;BME280;63021;52.836;6.376;2023-03-15T00:41:23;101073.13;;;2.87;72.35
55456;BME280;63021;52.836;6.376;2023-03-15T00:43:48;101089.38;;;2.93;72.03
55456;BME280;63021;52.836;6.376;2023-03-15T00:46:15;101086.00;;;2.91;72.51
55456;BME280;63021;52.836;6.376;2023-03-15T00:48:41;101095.66;;;2.91;72.77
55456;BME280;63021;52.836;6.376;2023-03-15T00:51:18;101100.09;;;2.90;73.06
55456;BME280;63021;52.836;6.376;2023-03-15T00:53:46;101094.06;;;2.88;72.12
55456;BME280;63021;52.836;6.376;2023-03-15T00:56:15;101092.00;;;2.79;72.40
55456;BME280;63021;52.836;6.376;2023-03-15T00:58:41;101100.34;;;2.86;72.80
55456;BME280;63021;52.836;6.376;2023-03-15T01:01:08;101112.66;;;2.85;72.13
55456;BME280;63021;52.836;6.376;2023-03-15T01:03:34;101106.75;;;2.82;72.66
55456;BME280;63021;52.836;6.376;2023-03-15T01:06:07;101112.00;;;2.82;72.42
55456;BME280;63021;52.836;6.376;2023-03-15T01:08:33;101118.38;;;2.77;72.18
55456;BME280;63021;52.836;6.376;2023-03-15T01:11:05;101120.31;;;2.74;72.58
55456;BME280;63021;52.836;6.376;2023-03-15T01:13:32;101119.84;;;2.67;72.74
55456;BME280;63021;52.836;6.376;2023-03-15T01:15:57;101122.28;;;2.70;72.83
55456;BME280;63021;52.836;6.376;2023-03-15T01:18:23;101120.69;;;2.68;72.95
55456;BME280;63021;52.836;6.376;2023-03-15T01:20:49;101136.28;;;2.71;72.78
55456;BME280;63021;52.836;6.376;2023-03-15T01:23:17;101143.41;;;2.69;72.96
55456;BME280;63021;52.836;6.376;2023-03-15T01:25:42;101152.16;;;2.69;72.84
55456;BME280;63021;52.836;6.376;2023-03-15T01:28:08;101155.78;;;2.67;72.39
55456;BME280;63021;52.836;6.376;2023-03-15T01:30:33;101173.44;;;2.65;72.44
55456;BME280;63021;52.836;6.376;2023-03-15T01:32:59;101159.28;;;2.67;72.66
55456;BME280;63021;52.836;6.376;2023-03-15T01:35:24;101165.47;;;2.66;72.39
55456;BME280;63021;52.836;6.376;2023-03-15T01:37:50;101165.56;;;2.65;72.42
55456;BME280;63021;52.836;6.376;2023-03-15T01:40:16;101166.47;;;2.64;72.63
55456;BME280;63021;52.836;6.376;2023-03-15T01:42:53;101184.03;;;2.63;72.58
55456;BME280;63021;52.836;6.376;2023-03-15T01:46:01;101182.34;;;2.62;72.39
55456;BME280;63021;52.836;6.376;2023-03-15T01:56:22;101209.22;;;2.51;71.77
55456;BME280;63021;52.836;6.376;2023-03-15T01:58:49;101209.38;;;2.48;71.70
55456;BME280;63021;52.836;6.376;2023-03-15T02:01:17;101227.88;;;2.47;71.93
55456;BME280;63021;52.836;6.376;2023-03-15T02:03:46;75458.53;;;2.47;71.40
55456;BME280;63021;52.836;6.376;2023-03-15T02:06:16;101211.63;;;2.40;71.68
55456;BME280;63021;52.836;6.376;2023-03-15T02:08:48;101218.63;;;2.39;72.18
55456;BME280;63021;52.836;6.376;2023-03-15T02:11:16;101217.97;;;2.36;71.73
55456;BME280;63021;52.836;6.376;2023-03-15T02:13:43;101219.06;;;2.32;71.45
55456;BME280;63021;52.836;6.376;2023-03-15T02:16:09;101222.19;;;2.22;71.35
55456;BME280;63021;52.836;6.376;2023-03-15T02:18:35;101247.53;;;2.23;71.83
55456;BME280;63021;52.836;6.376;2023-03-15T02:21:32;101260.91;;;2.19;71.42
55456;BME280;63021;52.836;6.376;2023-03-15T02:26:44;101243.28;;;2.05;71.69
55456;BME280;63021;52.836;6.376;2023-03-15T02:29:12;101246.06;;;2.02;72.10
55456;BME280;63021;52.836;6.376;2023-03-15T02:31:38;101226.81;;;1.85;71.91
55456;BME280;63021;52.836;6.376;2023-03-15T02:34:06;101251.66;;;1.96;72.00
55456;BME280;63021;52.836;6.376;2023-03-15T02:36:33;101261.38;;;1.94;71.34
55456;BME280;63021;52.836;6.376;2023-03-15T02:38:59;101259.75;;;1.91;71.50
55456;BME280;63021;52.836;6.376;2023-03-15T02:41:34;101267.78;;;1.88;72.13
55456;BME280;63021;52.836;6.376;2023-03-15T02:44:05;101262.69;;;1.85;71.85
55456;BME280;63021;52.836;6.376;2023-03-15T02:46:33;101264.72;;;1.80;71.52
55456;BME280;63021;52.836;6.376;2023-03-15T02:48:58;101274.53;;;1.76;71.45
55456;BME280;63021;52.836;6.376;2023-03-15T02:51:27;101271.91;;;1.76;71.47
55456;BME280;63021;52.836;6.376;2023-03-15T02:53:57;101272.91;;;1.73;72.12
55456;BME280;63021;52.836;6.376;2023-03-15T02:56:22;101269.31;;;1.59;71.89
55456;BME280;63021;52.836;6.376;2023-03-15T02:58:48;101272.47;;;1.65;71.36
55456;BME280;63021;52.836;6.376;2023-03-15T03:01:15;101278.47;;;1.67;72.06
55456;BME280;63021;52.836;6.376;2023-03-15T03:03:43;101270.78;;;1.64;72.06
55456;BME280;63021;52.836;6.376;2023-03-15T03:06:11;101291.84;;;1.63;72.04
55456;BME280;63021;52.836;6.376;2023-03-15T03:08:37;101294.63;;;1.60;72.05
55456;BME280;63021;52.836;6.376;2023-03-15T03:11:02;101293.91;;;1.56;71.71
55456;BME280;63021;52.836;6.376;2023-03-15T03:13:28;101304.50;;;1.54;71.97
55456;BME280;63021;52.836;6.376;2023-03-15T03:15:54;101325.72;;;1.50;71.51
55456;BME280;63021;52.836;6.376;2023-03-15T03:18:31;101314.53;;;1.46;72.00
55456;BME280;63021;52.836;6.376;2023-03-15T03:21:01;101327.72;;;1.45;71.49
55456;BME280;63021;52.836;6.376;2023-03-15T03:23:29;101327.03;;;1.41;71.58
55456;BME280;63021;52.836;6.376;2023-03-15T03:25:56;101336.66;;;1.41;71.52
55456;BME280;63021;52.836;6.376;2023-03-15T03:28:23;101365.91;;;1.33;71.65
55456;BME280;63021;52.836;6.376;2023-03-15T03:30:50;101353.63;;;1.33;71.70
55456;BME280;63021;52.836;6.376;2023-03-15T03:33:15;101349.59;;;1.26;71.67
55456;BME280;63021;52.836;6.376;2023-03-15T03:35:41;101362.78;;;1.25;71.87
55456;BME280;63021;52.836;6.376;2023-03-15T03:38:11;101355.06;;;1.21;71.63
55456;BME280;63021;52.836;6.376;2023-03-15T03:40:37;101364.81;;;1.19;71.65
55456;BME280;63021;52.836;6.376;2023-03-15T03:43:04;101364.00;;;1.17;72.16
55456;BME280;63021;52.836;6.376;2023-03-15T03:45:30;101362.38;;;1.15;72.28
55456;BME280;63021;52.836;6.376;2023-03-15T03:47:55;101373.03;;;1.12;71.53
55456;BME280;63021;52.836;6.376;2023-03-15T03:50:21;101359.38;;;1.05;71.40
55456;BME280;63021;52.836;6.376;2023-03-15T03:52:46;101379.22;;;1.11;71.98
55456;BME280;63021;52.836;6.376;2023-03-15T03:55:12;101368.56;;;0.95;71.63
55456;BME280;63021;52.836;6.376;2023-03-15T03:57:41;101384.88;;;1.01;71.96
55456;BME280;63021;52.836;6.376;2023-03-15T04:00:08;101391.91;;;1.01;71.65
55456;BME280;63021;52.836;6.376;2023-03-15T04:02:35;101405.91;;;1.00;71.99
55456;BME280;63021;52.836;6.376;2023-03-15T04:05:06;101394.03;;;0.93;72.26
55456;BME280;63021;52.836;6.376;2023-03-15T04:07:31;101401.72;;;0.96;71.54
55456;BME280;63021;52.836;6.376;2023-03-15T04:09:57;101393.38;;;0.88;71.75
55456;BME280;63021;52.836;6.376;2023-03-15T04:12:22;101411.53;;;0.92;71.24
55456;BME280;63021;52.836;6.376;2023-03-15T04:14:47;101422.94;;;0.91;71.92
55456;BME280;63021;52.836;6.376;2023-03-15T04:17:13;101432.56;;;0.91;72.04
55456;BME280;63021;52.836;6.376;2023-03-15T04:19:38;101440.44;;;0.91;71.75
55456;BME280;63021;52.836;6.376;2023-03-15T04:22:03;101438.06;;;0.84;71.42
55456;BME280;63021;52.836;6.376;2023-03-15T04:24:34;101442.34;;;0.87;72.03
55456;BME280;63021;52.836;6.376;2023-03-15T04:27:00;101447.28;;;0.93;71.62
55456;BME280;63021;52.836;6.376;2023-03-15T04:29:26;101469.13;;;0.94;71.58
55456;BME280;63021;52.836;6.376;2023-03-15T04:31:51;101447.34;;;0.92;71.82
55456;BME280;63021;52.836;6.376;2023-03-15T04:34:17;101456.78;;;0.96;71.62
55456;BME280;63021;52.836;6.376;2023-03-15T04:36:42;101444.03;;;0.88;71.48
55456;BME280;63021;52.836;6.376;2023-03-15T04:39:08;101461.13;;;0.97;71.22
55456;BME280;63021;52.836;6.376;2023-03-15T04:41:34;101463.75;;;0.97;71.22
55456;BME280;63021;52.836;6.376;2023-03-15T04:44:03;101457.16;;;0.88;71.85
55456;BME280;63021;52.836;6.376;2023-03-15T04:46:30;101457.16;;;-146.93;71.66
55456;BME280;63021;52.836;6.376;2023-03-15T04:48:56;101468.25;;;0.93;72.09
55456;BME280;63021;52.836;6.376;2023-03-15T04:51:22;101465.09;;;0.86;72.13
55456;BME280;63021;52.836;6.376;2023-03-15T04:53:47;101485.25;;;0.84;72.10
55456;BME280;63021;52.836;6.376;2023-03-15T04:56:12;101464.13;;;0.88;71.94
55456;BME280;63021;52.836;6.376;2023-03-15T04:58:38;101482.44;;;0.89;71.62
55456;BME280;63021;52.836;6.376;2023-03-15T05:01:03;101488.69;;;0.86;71.81
55456;BME280;63021;52.836;6.376;2023-03-15T05:03:29;101487.94;;;0.83;72.50
55456;BME280;63021;52.836;6.376;2023-03-15T05:05:56;101486.31;;;0.80;72.40
55456;BME280;63021;52.836;6.376;2023-03-15T05:08:21;101483.81;;;0.77;71.87
55456;BME280;63021;52.836;6.376;2023-03-15T05:10:47;101494.44;;;0.74;72.16
55456;BME280;63021;52.836;6.376;2023-03-15T05:13:15;101509.97;;;0.79;72.40
55456;BME280;63021;52.836;6.376;2023-03-15T05:15:43;74974.84;;;-146.93;71.97
55456;BME280;63021;52.836;6.376;2023-03-15T05:18:08;101497.34;;;0.68;71.94
55456;BME280;63021;52.836;6.376;2023-03-15T05:20:35;101515.41;;;0.74;72.25
55456;BME280;63021;52.836;6.376;2023-03-15T05:23:01;101525.06;;;0.74;72.45
55456;BME280;63021;52.836;6.376;2023-03-15T05:25:27;101529.31;;;0.76;72.07
55456;BME280;63021;52.836;6.376;2023-03-15T05:27:54;101554.53;;;0.79;72.34
55456;BME280;63021;52.836;6.376;2023-03-15T05:30:19;101530.53;;;0.67;72.34
55456;BME280;63021;52.836;6.376;2023-03-15T05:32:45;101529.69;;;0.67;72.72
55456;BME280;63021;52.836;6.376;2023-03-15T05:35:11;101538.16;;;0.74;73.15
55456;BME280;63021;52.836;6.376;2023-03-15T05:37:37;101550.72;;;0.86;72.53
55456;BME280;63021;52.836;6.376;2023-03-15T05:40:04;101549.75;;;0.89;72.69
55456;BME280;63021;52.836;6.376;2023-03-15T05:42:32;101546.13;;;0.91;72.78
55456;BME280;63021;52.836;6.376;2023-03-15T05:44:58;101552.16;;;0.93;73.36
55456;BME280;63021;52.836;6.376;2023-03-15T05:47:23;101548.63;;;0.94;73.22
55456;BME280;63021;52.836;6.376;2023-03-15T05:49:49;101566.91;;;0.96;72.90
55456;BME280;63021;52.836;6.376;2023-03-15T05:52:15;101577.53;;;0.93;73.18
55456;BME280;63021;52.836;6.376;2023-03-15T05:54:40;101556.22;;;1.00;73.05
55456;BME280;63021;52.836;6.376;2023-03-15T05:57:06;101563.22;;;1.00;73.38
55456;BME280;63021;52.836;6.376;2023-03-15T05:59:31;101564.13;;;0.99;73.50
55456;BME280;63021;52.836;6.376;2023-03-15T06:01:57;101564.13;;;0.99;73.31
55456;BME280;63021;52.836;6.376;2023-03-15T06:04:22;101572.59;;;1.06;73.75
55456;BME280;63021;52.836;6.376;2023-03-15T06:06:49;101583.03;;;1.07;73.74
55456;BME280;63021;52.836;6.376;2023-03-15T06:09:15;101577.69;;;1.09;73.35
55456;BME280;63021;52.836;6.376;2023-03-15T06:11:40;101583.09;;;1.06;74.05
55456;BME280;63021;52.836;6.376;2023-03-15T06:14:06;101587.50;;;1.05;73.19
55456;BME280;63021;52.836;6.376;2023-03-15T06:16:31;101588.19;;;1.09;73.52
55456;BME280;63021;52.836;6.376;2023-03-15T06:18:57;101582.19;;;1.07;73.39
55456;BME280;63021;52.836;6.376;2023-03-15T06:21:22;101593.66;;;1.04;73.79
55456;BME280;63021;52.836;6.376;2023-03-15T06:23:48;101591.03;;;1.04;73.83
55456;BME280;63021;52.836;6.376;2023-03-15T06:26:13;101596.06;;;1.09;73.54
55456;BME280;63021;52.836;6.376;2023-03-15T06:28:39;101616.06;;;1.11;73.70
55456;BME280;63021;52.836;6.376;2023-03-15T06:31:09;101602.09;;;1.11;74.09
55456;BME280;63021;52.836;6.376;2023-03-15T06:33:35;101607.38;;;1.09;73.49
55456;BME280;63021;52.836;6.376;2023-03-15T06:36:01;101616.19;;;1.08;73.59
55456;BME280;63021;52.836;6.376;2023-03-15T06:38:28;101616.84;;;1.13;73.80
55456;BME280;63021;52.836;6.376;2023-03-15T06:40:55;101639.66;;;1.11;73.84
55456;BME280;63021;52.836;6.376;2023-03-15T06:43:22;101635.78;;;1.20;74.04
55456;BME280;63021;52.836;6.376;2023-03-15T06:45:47;101624.31;;;1.23;74.26
55456;BME280;63021;52.836;6.376;2023-03-15T06:48:13;101637.75;;;1.35;74.19
55456;BME280;63021;52.836;6.376;2023-03-15T06:50:39;101633.84;;;1.44;73.97
55456;BME280;63021;52.836;6.376;2023-03-15T06:53:05;101638.69;;;1.53;73.45
55456;BME280;63021;52.836;6.376;2023-03-15T06:55:31;101655.66;;;1.65;73.47
55456;BME280;63021;52.836;6.376;2023-03-15T06:57:56;101647.28;;;1.76;73.11
55456;BME280;63021;52.836;6.376;2023-03-15T07:00:21;101656.22;;;1.91;73.08
55456;BME280;63021;52.836;6.376;2023-03-15T07:02:47;101659.19;;;2.02;73.32
55456;BME280;63021;52.836;6.376;2023-03-15T07:05:13;101669.91;;;2.17;73.04
55456;BME280;63021;52.836;6.376;2023-03-15T07:07:39;101672.66;;;2.33;73.55
55456;BME280;63021;52.836;6.376;2023-03-15T07:10:05;101669.38;;;2.47;73.31
55456;BME280;63021;52.836;6.376;2023-03-15T07:12:31;101662.06;;;2.53;73.17
55456;BME280;63021;52.836;6.376;2023-03-15T07:14:56;101677.47;;;2.78;72.89
55456;BME280;63021;52.836;6.376;2023-03-15T07:17:22;101670.91;;;2.87;72.39
55456;BME280;63021;52.836;6.376;2023-03-15T07:19:47;101685.91;;;3.03;72.77
55456;BME280;63021;52.836;6.376;2023-03-15T07:22:12;101683.50;;;3.16;72.14
55456;BME280;63021;52.836;6.376;2023-03-15T07:24:38;101687.00;;;3.34;72.22
55456;BME280;63021;52.836;6.376;2023-03-15T07:27:03;101684.66;;;3.45;71.84
55456;BME280;63021;52.836;6.376;2023-03-15T07:29:29;101680.69;;;3.54;71.59
55456;BME280;63021;52.836;6.376;2023-03-15T07:31:54;101699.66;;;3.76;71.96
55456;BME280;63021;52.836;6.376;2023-03-15T07:34:20;101694.59;;;3.89;71.42
55456;BME280;63021;52.836;6.376;2023-03-15T07:36:46;101699.22;;;4.02;71.26
55456;BME280;63021;52.836;6.376;2023-03-15T07:39:11;101701.09;;;4.15;71.07
55456;BME280;63021;52.836;6.376;2023-03-15T07:41:37;101709.09;;;4.30;71.33
55456;BME280;63021;52.836;6.376;2023-03-15T07:44:02;101710.94;;;4.44;70.93
55456;BME280;63021;52.836;6.376;2023-03-15T07:46:28;101711.28;;;4.54;70.82
55456;BME280;63021;52.836;6.376;2023-03-15T07:48:53;101719.25;;;4.68;70.19
55456;BME280;63021;52.836;6.376;2023-03-15T07:51:19;101725.56;;;4.81;69.98
55456;BME280;63021;52.836;6.376;2023-03-15T07:53:44;101725.72;;;4.94;69.88
55456;BME280;63021;52.836;6.376;2023-03-15T07:56:10;101724.78;;;5.10;69.11
55456;BME280;63021;52.836;6.376;2023-03-15T07:58:35;101733.13;;;5.18;68.97
55456;BME280;63021;52.836;6.376;2023-03-15T08:01:00;101729.41;;;5.36;68.52
55456;BME280;63021;52.836;6.376;2023-03-15T08:03:26;101725.44;;;5.44;68.45
55456;BME280;63021;52.836;6.376;2023-03-15T08:05:52;101736.63;;;5.63;68.66
55456;BME280;63021;52.836;6.376;2023-03-15T08:08:17;101740.31;;;5.75;68.02
55456;BME280;63021;52.836;6.376;2023-03-15T08:10:44;101744.47;;;5.79;67.44
55456;BME280;63021;52.836;6.376;2023-03-15T08:13:18;101734.19;;;5.89;67.40
55456;BME280;63021;52.836;6.376;2023-03-15T08:15:45;101743.50;;;6.09;67.38
55456;BME280;63021;52.836;6.376;2023-03-15T08:18:11;101740.59;;;6.14;66.62
55456;BME280;63021;52.836;6.376;2023-03-15T08:20:37;101753.72;;;6.30;66.41
55456;BME280;63021;52.836;6.376;2023-03-15T08:23:02;101753.03;;;6.40;66.01
55456;BME280;63021;52.836;6.376;2023-03-15T08:25:28;101754.78;;;6.54;66.03
55456;BME280;63021;52.836;6.376;2023-03-15T08:27:54;101752.81;;;6.58;65.23
55456;BME280;63021;52.836;6.376;2023-03-15T08:30:19;101750.88;;;6.74;64.89
55456;BME280;63021;52.836;6.376;2023-03-15T08:32:46;101747.28;;;6.75;64.71
55456;BME280;63021;52.836;6.376;2023-03-15T08:35:14;101763.78;;;6.79;64.79
55456;BME280;63021;52.836;6.376;2023-03-15T08:37:40;101781.16;;;6.83;64.49
55456;BME280;63021;52.836;6.376;2023-03-15T08:40:06;101767.63;;;6.88;63.50
55456;BME280;63021;52.836;6.376;2023-03-15T08:42:37;101766.13;;;6.84;63.29
55456;BME280;63021;52.836;6.376;2023-03-15T08:45:04;101775.66;;;6.86;63.56
55456;BME280;63021;52.836;6.376;2023-03-15T08:47:32;101778.78;;;6.93;63.64
55456;BME280;63021;52.836;6.376;2023-03-15T08:50:06;101788.53;;;6.92;63.00
55456;BME280;63021;52.836;6.376;2023-03-15T08:52:32;101788.75;;;7.02;62.66
55456;BME280;63021;52.836;6.376;2023-03-15T08:54:57;101799.25;;;7.04;62.13
55456;BME280;63021;52.836;6.376;2023-03-15T08:57:23;101798.41;;;7.03;62.19
55456;BME280;63021;52.836;6.376;2023-03-15T08:59:54;101802.75;;;7.04;62.57
55456;BME280;63021;52.836;6.376;2023-03-15T09:02:20;101795.13;;;7.00;62.92
55456;BME280;63021;52.836;6.376;2023-03-15T09:04:47;101809.56;;;7.08;62.12
55456;BME280;63021;52.836;6.376;2023-03-15T09:07:12;101816.94;;;7.03;61.83
55456;BME280;63021;52.836;6.376;2023-03-15T09:09:39;101817.13;;;7.00;61.49
55456;BME280;63021;52.836;6.376;2023-03-15T09:12:05;101819.69;;;7.02;61.98
55456;BME280;63021;52.836;6.376;2023-03-15T09:14:30;101834.84;;;7.00;61.35
55456;BME280;63021;52.836;6.376;2023-03-15T09:16:59;101817.97;;;7.01;61.76
55456;BME280;63021;52.836;6.376;2023-03-15T09:19:24;101807.38;;;7.01;61.64
55456;BME280;63021;52.836;6.376;2023-03-15T09:21:49;101806.84;;;6.96;61.28
55456;BME280;63021;52.836;6.376;2023-03-15T09:24:15;101810.03;;;7.01;61.64
55456;BME280;63021;52.836;6.376;2023-03-15T09:26:41;101797.22;;;6.94;61.80
55456;BME280;63021;52.836;6.376;2023-03-15T09:29:06;101824.47;;;7.09;61.57
55456;BME280;63021;52.836;6.376;2023-03-15T09:31:34;101821.19;;;7.06;61.70
55456;BME280;63021;52.836;6.376;2023-03-15T09:34:00;101815.06;;;7.18;61.31
55456;BME280;63021;52.836;6.376;2023-03-15T09:36:26;101823.25;;;7.28;61.49
55456;BME280;63021;52.836;6.376;2023-03-15T09:38:51;101806.63;;;7.26;61.09
55456;BME280;63021;52.836;6.376;2023-03-15T09:41:37;101815.81;;;7.48;61.15
55456;BME280;63021;52.836;6.376;2023-03-15T09:44:14;101827.59;;;7.56;60.79
55456;BME280;63021;52.836;6.376;2023-03-15T09:47:17;101829.69;;;7.64;60.34
55456;BME280;63021;52.836;6.376;2023-03-15T09:52:31;101823.13;;;7.57;58.75
55456;BME280;63021;52.836;6.376;2023-03-15T09:55:17;101829.78;;;7.50;58.38
55456;BME280;63021;52.836;6.376;2023-03-15T09:57:55;101830.41;;;7.40;59.01
55456;BME280;63021;52.836;6.376;2023-03-15T10:03:03;101834.16;;;7.23;59.29
55456;BME280;63021;52.836;6.376;2023-03-15T10:05:40;101833.34;;;7.23;59.81
55456;BME280;63021;52.836;6.376;2023-03-15T10:08:11;101834.16;;;7.23;59.57
55456;BME280;63021;52.836;6.376;2023-03-15T10:10:50;101841.16;;;7.24;59.54
55456;BME280;63021;52.836;6.376;2023-03-15T10:13:51;101829.72;;;7.24;57.98
55456;BME280;63021;52.836;6.376;2023-03-15T10:19:24;101843.41;;;7.31;57.85
55456;BME280;63021;52.836;6.376;2023-03-15T10:25:08;101851.25;;;7.32;56.89
55456;BME280;63021;52.836;6.376;2023-03-15T10:28:08;101859.41;;;7.29;56.82
55456;BME280;63021;52.836;6.376;2023-03-15T10:30:37;101865.09;;;7.23;57.07
55456;BME280;63021;52.836;6.376;2023-03-15T10:35:46;101851.09;;;7.21;56.40
55456;BME280;63021;52.836;6.376;2023-03-15T10:38:17;101867.66;;;7.24;55.59
55456;BME280;63021;52.836;6.376;2023-03-15T10:46:24;101866.63;;;7.27;55.25
55456;BME280;63021;52.836;6.376;2023-03-15T10:48:58;101872.84;;;7.26;55.00
55456;BME280;63021;52.836;6.376;2023-03-15T10:51:28;101875.50;;;7.26;54.64
55456;BME280;63021;52.836;6.376;2023-03-15T10:56:47;101879.75;;;7.28;55.46
55456;BME280;63021;52.836;6.376;2023-03-15T10:59:19;101876.13;;;7.29;53.92
55456;BME280;63021;52.836;6.376;2023-03-15T11:01:47;101890.03;;;7.33;53.82
55456;BME280;63021;52.836;6.376;2023-03-15T11:04:17;101892.59;;;7.35;53.79
55456;BME280;63021;52.836;6.376;2023-03-15T11:09:17;101885.28;;;7.38;53.36
55456;BME280;63021;52.836;6.376;2023-03-15T11:12:05;101885.72;;;7.45;53.36
55456;BME280;63021;52.836;6.376;2023-03-15T11:14:37;101888.94;;;7.50;52.95
55456;BME280;63021;52.836;6.376;2023-03-15T11:17:05;101892.13;;;7.55;52.50
55456;BME280;63021;52.836;6.376;2023-03-15T11:19:35;101908.22;;;7.52;51.18
55456;BME280;63021;52.836;6.376;2023-03-15T11:22:03;101898.56;;;7.51;50.57
55456;BME280;63021;52.836;6.376;2023-03-15T11:24:30;101906.63;;;7.50;51.12
55456;BME280;63021;52.836;6.376;2023-03-15T11:26:59;101903.88;;;7.51;50.77
55456;BME280;63021;52.836;6.376;2023-03-15T11:31:53;101904.63;;;7.53;50.25
55456;BME280;63021;52.836;6.376;2023-03-15T11:37:09;101907.25;;;7.80;50.72
55456;BME280;63021;52.836;6.376;2023-03-15T11:39:54;101898.28;;;7.96;49.97
55456;BME280;63021;52.836;6.376;2023-03-15T11:42:31;101889.91;;;8.02;49.03
55456;BME280;63021;52.836;6.376;2023-03-15T11:45:02;101920.25;;;8.11;49.38
55456;BME280;63021;52.836;6.376;2023-03-15T11:48:02;101900.19;;;8.32;49.54
55456;BME280;63021;52.836;6.376;2023-03-15T11:50:29;101900.13;;;8.47;49.21
55456;BME280;63021;52.836;6.376;2023-03-15T11:52:55;101916.13;;;8.58;48.98
55456;BME280;63021;52.836;6.376;2023-03-15T11:55:27;101899.25;;;8.72;48.64
55456;BME280;63021;52.836;6.376;2023-03-15T11:57:55;101890.38;;;8.84;48.46
55456;BME280;63021;52.836;6.376;2023-03-15T12:06:32;101900.66;;;9.26;47.42
55456;BME280;63021;52.836;6.376;2023-03-15T12:08:59;101905.22;;;9.37;47.42
55456;BME280;63021;52.836;6.376;2023-03-15T12:16:26;101900.84;;;9.60;46.81
55456;BME280;63021;52.836;6.376;2023-03-15T12:18:54;101884.66;;;9.63;46.84
55456;BME280;63021;52.836;6.376;2023-03-15T12:21:31;101892.44;;;9.78;47.03
55456;BME280;63021;52.836;6.376;2023-03-15T12:24:04;101886.69;;;9.95;47.00
55456;BME280;63021;52.836;6.376;2023-03-15T12:26:44;101890.72;;;10.12;47.16
55456;BME280;63021;52.836;6.376;2023-03-15T12:34:44;101894.78;;;10.52;45.81
55456;BME280;63021;52.836;6.376;2023-03-15T12:37:41;101895.88;;;10.61;46.29
55456;BME280;63021;52.836;6.376;2023-03-15T12:45:33;101890.53;;;10.83;45.91
55456;BME280;63021;52.836;6.376;2023-03-15T12:53:36;101893.38;;;11.14;44.59
55456;BME280;63021;52.836;6.376;2023-03-15T12:59:02;101886.81;;;11.18;44.40
55456;BME280;63021;52.836;6.376;2023-03-15T13:01:29;101875.69;;;11.13;44.11
55456;BME280;63021;52.836;6.376;2023-03-15T13:03:56;101894.81;;;11.30;43.95
55456;BME280;63021;52.836;6.376;2023-03-15T13:12:11;101901.31;;;11.37;41.96
55456;BME280;63021;52.836;6.376;2023-03-15T13:17:35;101904.28;;;11.22;42.07
55456;BME280;63021;52.836;6.376;2023-03-15T13:25:39;101906.16;;;10.77;42.76
55456;BME280;63021;52.836;6.376;2023-03-15T13:30:40;101889.09;;;10.56;42.96
55456;BME280;63021;52.836;6.376;2023-03-15T13:35:39;101888.97;;;10.58;42.93
55456;BME280;63021;52.836;6.376;2023-03-15T13:38:19;101891.38;;;10.61;42.92
55456;BME280;63021;52.836;6.376;2023-03-15T13:40:46;101907.47;;;10.48;42.26
55456;BME280;63021;52.836;6.376;2023-03-15T13:43:11;101899.63;;;10.47;42.06
55456;BME280;63021;52.836;6.376;2023-03-15T13:45:40;101896.38;;;10.43;42.19
55456;BME280;63021;52.836;6.376;2023-03-15T13:48:06;101891.50;;;10.37;42.22
55456;BME280;63021;52.836;6.376;2023-03-15T13:50:32;101901.25;;;10.25;41.96
55456;BME280;63021;52.836;6.376;2023-03-15T13:52:57;101895.19;;;10.12;41.94
55456;BME280;63021;52.836;6.376;2023-03-15T13:55:23;101900.63;;;9.99;41.79
55456;BME280;63021;52.836;6.376;2023-03-15T13:57:53;101890.31;;;9.94;41.98
55456;BME280;63021;52.836;6.376;2023-03-15T14:00:21;101888.72;;;9.80;41.65
55456;BME280;63021;52.836;6.376;2023-03-15T14:03:02;101904.63;;;9.69;41.89
55456;BME280;63021;52.836;6.376;2023-03-15T14:05:33;101900.59;;;9.63;43.18
55456;BME280;63021;52.836;6.376;2023-03-15T14:08:17;101909.66;;;9.61;42.90
55456;BME280;63021;52.836;6.376;2023-03-15T14:13:28;101905.94;;;9.39;43.23
55456;BME280;63021;52.836;6.376;2023-03-15T14:18:29;101919.50;;;9.23;42.81
55456;BME280;63021;52.836;6.376;2023-03-15T14:20:56;101922.72;;;9.15;43.00
55456;BME280;63021;52.836;6.376;2023-03-15T14:23:24;101909.47;;;9.02;43.96
55456;BME280;63021;52.836;6.376;2023-03-15T14:25:56;101913.72;;;9.05;44.35
55456;BME280;63021;52.836;6.376;2023-03-15T14:28:26;101941.25;;;9.04;43.33
55456;BME280;63021;52.836;6.376;2023-03-15T14:30:54;101931.69;;;9.01;41.94
55456;BME280;63021;52.836;6.376;2023-03-15T14:33:39;101920.63;;;8.95;42.46
55456;BME280;63021;52.836;6.376;2023-03-15T14:36:19;101916.53;;;8.91;43.11
55456;BME280;63021;52.836;6.376;2023-03-15T14:38:51;101921.31;;;8.86;42.40
55456;BME280;63021;52.836;6.376;2023-03-15T14:41:30;101916.63;;;8.76;41.60